Maria Desgagnes — VCWL — position and weather

sailwx.info

Track history (hours):
 
Tides and Currents Weather Stations Pressure Air Temp Water Temp Dewpoint Dewpoint Depression Visibility Wind Speed Wind Dir Waves Ship Positions

Maria Desgagnes

Last reported at 2016-May-20 16:33 UTC. Time now 2016-May-25 05:16 UTC.
Position N 48°58' W 058°01'.

Length 120 m; draft 9.6 m.

Type: Ship (hazmat cat A). MMSI: 316285000.

Date/timePositionNaut miles runAvg speedWind from/ knotsBaromVisibWave heightAir tempDewpointWater temp
2016-May-20 16:33N 48°58' W 058°01'1311.6
2016-May-20 15:26N 49°06' W 058°16'  
2016-May-14 17:33N 49°08' W 058°18'1313.4
2016-May-14 16:33N 48°59' W 058°03'3 2.9
2016-May-14 15:33N 48°58' W 057°59'0 0.0
2016-May-14 14:30N 48°58' W 057°59'0 0.0
2016-May-14 13:33N 48°58' W 057°59'0 0.0
2016-May-14 12:33N 48°58' W 057°59'0 0.0
2016-May-14 11:33N 48°58' W 057°59'0 0.0
2016-May-14 10:33N 48°58' W 057°59'0 0.0
2016-May-14 09:33N 48°58' W 057°59'0 0.0
2016-May-14 08:33N 48°58' W 057°59'0 0.0
2016-May-14 07:33N 48°58' W 057°59'0 0.0
2016-May-14 06:33N 48°58' W 057°59'0 0.0
2016-May-14 05:33N 48°58' W 057°59'0 0.0
2016-May-14 04:33N 48°58' W 057°59'0 0.5
2016-May-14 03:33N 48°58' W 057°59'7 6.9
2016-May-14 02:34N 49°02' W 058°08'8 0.9
2016-May-13 17:33N 49°06' W 058°18'0 0.0
2016-May-13 14:04N 49°06' W 058°18'0 0.5
2016-May-13 13:23N 49°06' W 058°18'4 4.2
2016-May-13 12:33N 49°09' W 058°20'  
Track history (hours):
 
Tides and Currents Weather Stations Pressure Air Temp Water Temp Dewpoint Dewpoint Depression Visibility Wind Speed Wind Dir Waves Ship Positions

Maria Desgagnes

Last reported at 2016-May-20 16:33 UTC. Time now 2016-May-25 05:16 UTC.
Position N 48°58' W 058°01'.

Length 120 m; draft 9.6 m.

Type: Ship (hazmat cat A). MMSI: 316285000.

Date/timePositionNaut miles runAvg speedWind from/ knotsBaromVisibWave heightAir tempDewpointWater temp
2016-May-20 16:33N 48°58' W 058°01'1311.6
2016-May-20 15:26N 49°06' W 058°16'  
2016-May-14 17:33N 49°08' W 058°18'1313.4
2016-May-14 16:33N 48°59' W 058°03'3 2.9
2016-May-14 15:33N 48°58' W 057°59'0 0.0
2016-May-14 14:30N 48°58' W 057°59'0 0.0
2016-May-14 13:33N 48°58' W 057°59'0 0.0
2016-May-14 12:33N 48°58' W 057°59'0 0.0
2016-May-14 11:33N 48°58' W 057°59'0 0.0
2016-May-14 10:33N 48°58' W 057°59'0 0.0
2016-May-14 09:33N 48°58' W 057°59'0 0.0
2016-May-14 08:33N 48°58' W 057°59'0 0.0
2016-May-14 07:33N 48°58' W 057°59'0 0.0
2016-May-14 06:33N 48°58' W 057°59'0 0.0
2016-May-14 05:33N 48°58' W 057°59'0 0.0
2016-May-14 04:33N 48°58' W 057°59'0 0.5
2016-May-14 03:33N 48°58' W 057°59'7 6.9
2016-May-14 02:34N 49°02' W 058°08'8 0.9
2016-May-13 17:33N 49°06' W 058°18'0 0.0
2016-May-13 14:04N 49°06' W 058°18'0 0.5
2016-May-13 13:23N 49°06' W 058°18'4 4.2
2016-May-13 12:33N 49°09' W 058°20'  

Dump ship's entire track history